Nearby METAR Reports

 

KSJC - San Jose, California, USA
Distance from station: NE 9mi, 14km
Updated: 2024-07-19 08:53
Clear
Clear
 Wind from calm
Wind: Calm
Temperature: 70°F, 21°C
Dew Point: 57°F, 14°C
Humidity: 64%
Barometer: 30.01 inHg, 1016.3 hPa
Clouds: Clear
Visibility: 10 miles, 16 km
2024/07/19 15:53 KSJC 191553Z 00000KT 10SM CLR 21/14 A3001 RMK AO2 SLP161 T02110144
KPAO - Palo Alto, California, USA
Distance from station: NNW 14mi, 23km
Updated: 2024-07-19 08:47
Clear
Clear
 Wind from varies
Wind: varies 5 mph, 7 km/h
Temperature: 64°F, 18°C
Dew Point: 57°F, 14°C
Humidity: 78%
Barometer: 30.02 inHg, 1016.6 hPa
Clouds: Clear
Visibility: 10 miles, 16 km
2024/07/19 15:47 KPAO 191547Z VRB04KT 10SM SKC 18/14 A3002
 
KRHV - San Jose/Reid, California, USA
Distance from station: ENE 12mi, 19km
Updated: 2024-07-19 08:51
Clear
Clear
 Wind from calm
Wind: Calm
Temperature: 70°F, 21°C
Dew Point: 55°F, 13°C
Humidity: 60%
Barometer: 30.02 inHg, 1016.6 hPa
Clouds: Clear
Visibility: 10 miles, 16 km
2024/07/19 15:51 KRHV 191551Z 00000KT 10SM SKC 21/13 A3002
KOAK - Oakland, California, USA
Distance from station: NNW 31mi, 50km
Updated: 2024-07-19 08:53
Clear
Clear
 Wind from WSW
Wind: WSW 5 mph, 7 km/h
Temperature: 64°F, 18°C
Dew Point: 59°F, 15°C
Humidity: 83%
Barometer: 30.02 inHg, 1016.6 hPa
Clouds: Clear
Visibility: 10 miles, 16 km
2024/07/19 15:53 KOAK 191553Z 24004KT 10SM CLR 18/15 A3002 RMK AO2 SLP166 T01830150
 
KSQL - San Carlos Airpo, California, USA
Distance from station: NW 21mi, 34km
Updated: 2024-07-19 08:47
Clear
Clear
 Wind from calm
Wind: Calm
Temperature: 64°F, 18°C
Dew Point: 57°F, 14°C
Humidity: 78%
Barometer: 30.02 inHg, 1016.6 hPa
Clouds: Clear
Visibility: 10 miles, 16 km
2024/07/19 15:47 KSQL 191547Z 00000KT 10SM CLR 18/14 A3002
KSFO - San Francisco, California, USA
Distance from station: NW 30mi, 49km
Updated: 2024-07-19 08:56
Few Clouds
Few Clouds
 Wind from N
Wind: N 5 mph, 7 km/h
Temperature: 63°F, 17°C
Dew Point: 54°F, 12°C
Humidity: 73%
Barometer: 30.01 inHg, 1016.3 hPa
Clouds: Few Clouds
Visibility: 10 miles, 16 km
Cloud details: Few Clouds 600 ft
2024/07/19 15:56 KSFO 191556Z 35004KT 10SM FEW006 17/12 A3001 RMK AO2 SLP162 T01720122
 
KE16 - San Martin, California, USA
Distance from station: ESE 27mi, 43km
Updated: 2024-07-19 08:55
Clear
Clear
 Wind from calm
Wind: Calm
Temperature: 66°F, 19°C
Dew Point: 54°F, 12°C
Humidity: 64%
Barometer: 30.03 inHg, 1016.9 hPa
Clouds: Clear
Visibility: 10 miles, 16 km
2024/07/19 15:55 KE16 191555Z AUTO 00000KT 10SM CLR 19/12 A3003 RMK AO2 PWINO PNO
KWVI - Watsonville, California, USA
Distance from station: SSE 27mi, 44km
Updated: 2024-07-19 08:53
Overcast
Overcast
 Wind from calm
Wind: Calm
Temperature: 59°F, 15°C
Dew Point: 55°F, 13°C
Humidity: 88%
Barometer: 30.03 inHg, 1016.9 hPa
Clouds: Overcast
Visibility: 10 miles, 16 km
Cloud details: Overcast 400 ft
2024/07/19 15:53 KWVI 191553Z AUTO 00000KT 10SM OVC004 15/13 A3003 RMK AO2 SLP169 T01500128
 
KHAF - Half Moon Bay, California, USA
Distance from station: WNW 31mi, 50km
Updated: 2024-07-19 08:55
Mist, Overcast
Mist, Overcast
 Wind from calm
Wind: Calm
Temperature: 55°F, 13°C
Dew Point: 55°F, 13°C
Humidity: 100%
Barometer: 30.04 inHg, 1017.3 hPa
Summary: Mist
Clouds: Overcast
Visibility: 5 miles, 8 km
Cloud details: Overcast 500 ft
2024/07/19 15:55 KHAF 191555Z AUTO 00000KT 5SM BR OVC005 13/13 A3004 RMK AO2
KHWD - Hayward, California, USA
Distance from station: N 28mi, 44km
Updated: 2024-07-19 08:54
Clear
Clear
 Wind from calm
Wind: Calm
Temperature: 68°F, 20°C
Dew Point: 55°F, 13°C
Humidity: 64%
Barometer: 30.01 inHg, 1016.3 hPa
Clouds: Clear
Visibility: 10 miles, 16 km
2024/07/19 15:54 KHWD 191554Z 00000KT 10SM CLR 20/13 A3001 RMK AO2 SLP169 T02000133
 
KLVK - Livermore, California, USA
Distance from station: NNE 31mi, 51km
Updated: 2024-07-19 08:53
Clear
Clear
 Wind from WNW
Wind: WNW 3 mph, 6 km/h
Temperature: 72°F, 22°C
Dew Point: 54°F, 12°C
Humidity: 53%
Barometer: 30.01 inHg, 1016.3 hPa
Clouds: Clear
Visibility: 10 miles, 16 km
2024/07/19 15:53 KLVK 191553Z AUTO 30003KT 10SM CLR 22/12 A3001 RMK AO2 SLP156 T02220117